Time;durP1;ratioP1;P1;durP2;ratioP2;P2;SDS_P1;SDS_P2;PMS_P1;PMS_P2;Temp;Humidity;BMP_temperature;BMP_pressure;BME280_temperature;BME280_humidity;BME280_pressure;Samples;Min_cycle;Max_cycle;Signal;HPM_P1;HPM_P2
2022/01/08 00:00:38;;;;;;;40.80;7.10;;;;;;;;;;4995375;28;20066;-68
2022/01/08 00:03:04;;;;;;;52.00;7.95;;;;;;;;;;4995488;28;20487;-68
2022/01/08 00:05:30;;;;;;;61.83;8.85;;;;;;;;;;4994994;28;20037;-67
2022/01/08 00:07:56;;;;;;;56.42;8.15;;;;;;;;;;4995110;28;20510;-67
2022/01/08 00:10:22;;;;;;;49.35;8.25;;;;;;;;;;4994727;28;20134;-68
2022/01/08 00:12:50;;;;;;;54.10;8.57;;;;;;;;;;4995096;28;20027;-67
2022/01/08 00:15:17;;;;;;;52.28;7.68;;;;;;;;;;4995206;28;20034;-68
2022/01/08 00:17:43;;;;;;;63.70;9.05;;;;;;;;;;4995035;28;20113;-67
2022/01/08 00:20:10;;;;;;;53.65;9.57;;;;;;;;;;4994441;28;20061;-67
2022/01/08 00:22:36;;;;;;;47.60;7.53;;;;;;;;;;4993949;28;20498;-68
2022/01/08 00:25:03;;;;;;;54.95;7.43;;;;;;;;;;4992904;28;20037;-67
2022/01/08 00:27:29;;;;;;;58.63;7.47;;;;;;;;;;4997052;28;20030;-67
2022/01/08 00:29:55;;;;;;;57.88;7.82;;;;;;;;;;4994719;28;20113;-67
2022/01/08 00:32:21;;;;;;;47.40;8.43;;;;;;;;;;4997396;28;20037;-67
2022/01/08 00:34:47;;;;;;;58.05;9.35;;;;;;;;;;4993998;28;20127;-67
2022/01/08 00:37:13;;;;;;;51.58;8.93;;;;;;;;;;4993711;28;20033;-67
2022/01/08 00:39:40;;;;;;;64.30;9.25;;;;;;;;;;4993675;28;20114;-67
2022/01/08 00:42:06;;;;;;;56.65;9.80;;;;;;;;;;4994520;28;20706;-67
2022/01/08 00:44:32;;;;;;;70.70;10.23;;;;;;;;;;4994314;28;20101;-68
2022/01/08 00:46:58;;;;;;;57.05;8.60;;;;;;;;;;4994704;28;20084;-68
2022/01/08 00:49:25;;;;;;;67.85;10.23;;;;;;;;;;4994502;28;20030;-68
2022/01/08 00:51:51;;;;;;;59.65;11.80;;;;;;;;;;4997254;28;20364;-68
2022/01/08 00:54:18;;;;;;;54.45;9.95;;;;;;;;;;4994196;28;20048;-67
2022/01/08 00:56:44;;;;;;;73.97;10.60;;;;;;;;;;4994429;28;20399;-67
2022/01/08 00:59:10;;;;;;;62.45;10.23;;;;;;;;;;4994409;28;20030;-67
2022/01/08 01:01:36;;;;;;;71.05;11.15;;;;;;;;;;4994244;28;20481;-67
2022/01/08 01:04:02;;;;;;;67.60;10.80;;;;;;;;;;4994246;28;20037;-67
2022/01/08 01:06:28;;;;;;;87.22;10.93;;;;;;;;;;5006483;28;20025;-67
2022/01/08 01:08:54;;;;;;;53.45;10.15;;;;;;;;;;5005810;28;20038;-67
2022/01/08 01:11:20;;;;;;;59.38;9.98;;;;;;;;;;4993942;28;20022;-67
2022/01/08 01:13:47;;;;;;;77.85;9.32;;;;;;;;;;4994193;28;20018;-67
2022/01/08 01:16:13;;;;;;;69.30;12.02;;;;;;;;;;4994288;28;20026;-67
2022/01/08 01:18:39;;;;;;;58.55;8.77;;;;;;;;;;4993411;28;20072;-68
2022/01/08 01:21:05;;;;;;;61.45;9.65;;;;;;;;;;4994070;28;20038;-67
2022/01/08 01:23:37;;;;;;;72.28;10.13;;;;;;;;;;4993211;28;20096;-67
2022/01/08 01:26:06;;;;;;;56.28;8.63;;;;;;;;;;4993509;28;20030;-67
2022/01/08 01:47:10;;;;;;;57.22;10.48;;;;;;;;;;4993316;28;20058;-67
2022/01/08 01:49:38;;;;;;;65.22;8.88;;;;;;;;;;4993251;28;20104;-68
2022/01/08 01:52:05;;;;;;;60.15;8.27;;;;;;;;;;4993308;28;20129;-68
2022/01/08 01:54:32;;;;;;;62.25;10.02;;;;;;;;;;4993547;28;20026;-68
2022/01/08 01:56:59;;;;;;;62.30;9.98;;;;;;;;;;4993435;28;20058;-67
2022/01/08 01:59:26;;;;;;;81.93;10.82;;;;;;;;;;4993380;28;20098;-68
2022/01/08 02:01:52;;;;;;;57.40;9.45;;;;;;;;;;4993272;28;20018;-68
2022/01/08 02:04:18;;;;;;;72.25;10.50;;;;;;;;;;4993415;28;20110;-68
2022/01/08 02:06:45;;;;;;;73.35;13.05;;;;;;;;;;4992661;28;20038;-68
2022/01/08 02:09:11;;;;;;;59.97;10.43;;;;;;;;;;4993477;28;20018;-67
2022/01/08 02:11:56;;;;;;;61.58;9.32;;;;;;;;;;4993010;28;20034;-68
2022/01/08 02:14:22;;;;;;;65.47;9.82;;;;;;;;;;4993262;28;20455;-68
2022/01/08 02:16:49;;;;;;;93.75;14.57;;;;;;;;;;4993218;28;20018;-68
2022/01/08 02:19:15;;;;;;;76.38;11.80;;;;;;;;;;4992959;28;20027;-67
2022/01/08 02:21:51;;;;;;;72.13;11.88;;;;;;;;;;4993209;28;20460;-68
2022/01/08 02:24:17;;;;;;;68.05;10.15;;;;;;;;;;4993165;28;20038;-67
2022/01/08 02:26:43;;;;;;;56.40;9.43;;;;;;;;;;4993145;28;20046;-67
2022/01/08 02:29:13;;;;;;;48.03;8.15;;;;;;;;;;4992958;28;20150;-68
2022/01/08 02:31:40;;;;;;;71.95;10.80;;;;;;;;;;4975540;28;20455;-67
2022/01/08 02:34:06;;;;;;;71.03;9.15;;;;;;;;;;4992797;28;20027;-67
2022/01/08 02:36:33;;;;;;;56.17;8.55;;;;;;;;;;4992460;28;20409;-67
2022/01/08 02:38:59;;;;;;;56.92;9.63;;;;;;;;;;4993099;28;20077;-67
2022/01/08 02:41:27;;;;;;;57.38;7.90;;;;;;;;;;4993073;28;20085;-67
2022/01/08 02:43:53;;;;;;;62.13;9.02;;;;;;;;;;4975319;28;20030;-67
2022/01/08 02:46:20;;;;;;;70.45;10.50;;;;;;;;;;4999793;28;20030;-67
2022/01/08 02:48:46;;;;;;;48.85;8.90;;;;;;;;;;5005735;28;20089;-67
2022/01/08 02:51:12;;;;;;;45.80;7.32;;;;;;;;;;4996902;28;20030;-67
2022/01/08 02:53:38;;;;;;;45.17;8.13;;;;;;;;;;4996705;28;20065;-67
2022/01/08 02:56:05;;;;;;;65.47;9.15;;;;;;;;;;4996900;28;20026;-67
2022/01/08 02:58:31;;;;;;;50.45;7.10;;;;;;;;;;4996723;28;20026;-67
2022/01/08 03:00:57;;;;;;;46.42;9.02;;;;;;;;;;4996575;28;20037;-67
2022/01/08 03:03:24;;;;;;;45.65;7.65;;;;;;;;;;4996067;28;20049;-67
2022/01/08 03:05:50;;;;;;;66.55;9.90;;;;;;;;;;4996404;28;20026;-67
2022/01/08 03:08:16;;;;;;;58.30;8.40;;;;;;;;;;4996268;28;20038;-67
2022/01/08 03:10:43;;;;;;;59.30;8.50;;;;;;;;;;4996487;28;20069;-67
2022/01/08 03:13:09;;;;;;;54.10;9.55;;;;;;;;;;4996035;28;20038;-67
2022/01/08 03:15:39;;;;;;;53.75;8.82;;;;;;;;;;5012743;28;20030;-67
2022/01/08 03:18:06;;;;;;;40.67;7.95;;;;;;;;;;5015668;28;20169;-68
2022/01/08 03:20:35;;;;;;;48.95;8.10;;;;;;;;;;5003966;28;20084;-67
2022/01/08 03:23:03;;;;;;;55.08;9.48;;;;;;;;;;4970912;28;20391;-67
2022/01/08 03:25:32;;;;;;;59.78;10.00;;;;;;;;;;4996313;28;20048;-67
2022/01/08 03:27:58;;;;;;;60.03;9.07;;;;;;;;;;4996105;28;20037;-67
2022/01/08 03:30:25;;;;;;;53.10;7.97;;;;;;;;;;4996020;28;20034;-67
2022/01/08 03:32:52;;;;;;;45.70;8.45;;;;;;;;;;4995334;28;20034;-67
2022/01/08 03:35:18;;;;;;;63.55;7.63;;;;;;;;;;4996077;28;20419;-67
2022/01/08 03:37:44;;;;;;;64.88;9.38;;;;;;;;;;4995866;28;20039;-67
2022/01/08 03:40:11;;;;;;;51.13;6.63;;;;;;;;;;4996253;28;20046;-67
2022/01/08 03:42:37;;;;;;;53.47;7.00;;;;;;;;;;4995581;28;20052;-67
2022/01/08 03:45:03;;;;;;;58.17;8.77;;;;;;;;;;4995852;28;20015;-67
2022/01/08 03:47:42;;;;;;;66.25;10.55;;;;;;;;;;4995364;28;20065;-67
2022/01/08 03:50:08;;;;;;;54.75;8.82;;;;;;;;;;4995539;28;20050;-67
2022/01/08 03:52:35;;;;;;;46.90;7.38;;;;;;;;;;4995655;28;20113;-68
2022/01/08 03:55:01;;;;;;;57.88;9.60;;;;;;;;;;4995527;28;20026;-67
2022/01/08 03:57:27;;;;;;;53.58;8.70;;;;;;;;;;4995604;28;20026;-67
2022/01/08 03:59:53;;;;;;;43.95;8.00;;;;;;;;;;4994249;28;20034;-67
2022/01/08 04:02:19;;;;;;;61.85;9.18;;;;;;;;;;4995345;28;20429;-67
2022/01/08 04:04:45;;;;;;;43.38;7.75;;;;;;;;;;4977432;28;20030;-67
2022/01/08 04:07:11;;;;;;;60.25;9.25;;;;;;;;;;4995315;28;20088;-67
2022/01/08 04:09:37;;;;;;;58.90;9.38;;;;;;;;;;4995079;28;20038;-67
2022/01/08 04:12:05;;;;;;;64.15;11.43;;;;;;;;;;4995034;28;20029;-67
2022/01/08 04:14:42;;;;;;;48.72;7.28;;;;;;;;;;4995513;28;20014;-67
2022/01/08 04:17:08;;;;;;;46.67;6.70;;;;;;;;;;4994862;28;20035;-67
2022/01/08 04:19:34;;;;;;;48.30;7.35;;;;;;;;;;4995286;28;20077;-67
2022/01/08 04:22:09;;;;;;;46.47;7.47;;;;;;;;;;4994871;28;20061;-67
2022/01/08 04:24:35;;;;;;;37.63;6.97;;;;;;;;;;4994929;28;20475;-67
2022/01/08 04:27:01;;;;;;;52.30;7.60;;;;;;;;;;4994557;28;20023;-67
2022/01/08 04:29:27;;;;;;;49.08;9.32;;;;;;;;;;4995065;28;20030;-67
2022/01/08 04:31:53;;;;;;;36.95;6.18;;;;;;;;;;4994421;28;20041;-67
2022/01/08 04:34:19;;;;;;;47.35;7.20;;;;;;;;;;4994805;28;20034;-67
2022/01/08 04:36:45;;;;;;;62.15;8.93;;;;;;;;;;4992652;28;20084;-67
2022/01/08 04:39:12;;;;;;;38.88;7.07;;;;;;;;;;4980740;28;20494;-67
2022/01/08 04:41:38;;;;;;;54.53;7.00;;;;;;;;;;4993950;28;20077;-67
2022/01/08 04:44:06;;;;;;;39.70;6.63;;;;;;;;;;4993523;28;20033;-68
2022/01/08 04:46:33;;;;;;;51.20;8.02;;;;;;;;;;4993489;28;20026;-67
2022/01/08 04:48:59;;;;;;;63.72;9.93;;;;;;;;;;4990370;28;20026;-67
2022/01/08 04:51:25;;;;;;;36.45;6.80;;;;;;;;;;4993617;28;20062;-67
2022/01/08 04:53:51;;;;;;;41.92;7.30;;;;;;;;;;4992699;28;20057;-67
2022/01/08 04:56:17;;;;;;;58.63;8.25;;;;;;;;;;4993815;28;20026;-67
2022/01/08 04:58:44;;;;;;;57.80;7.70;;;;;;;;;;4993447;28;20049;-67
2022/01/08 05:01:15;;;;;;;55.30;7.13;;;;;;;;;;4982068;28;20030;-67
2022/01/08 05:03:42;;;;;;;41.88;8.40;;;;;;;;;;4993480;28;20030;-67
2022/01/08 05:06:10;;;;;;;41.63;5.80;;;;;;;;;;4992213;28;20077;-67
2022/01/08 05:08:36;;;;;;;38.28;6.82;;;;;;;;;;4992194;28;20054;-67
2022/01/08 05:11:02;;;;;;;46.35;7.32;;;;;;;;;;4995549;28;20501;-67
2022/01/08 05:13:29;;;;;;;38.47;6.18;;;;;;;;;;4995515;28;20011;-68
2022/01/08 05:15:57;;;;;;;42.13;6.93;;;;;;;;;;4998356;28;20081;-67
2022/01/08 05:18:24;;;;;;;45.60;6.55;;;;;;;;;;4996629;28;20399;-67
2022/01/08 05:20:57;;;;;;;53.25;7.63;;;;;;;;;;4996276;28;20037;-67
2022/01/08 05:23:23;;;;;;;44.38;7.10;;;;;;;;;;4993490;28;20116;-67
2022/01/08 05:25:49;;;;;;;44.22;7.13;;;;;;;;;;4993760;28;20030;-67
2022/01/08 05:28:15;;;;;;;33.47;5.88;;;;;;;;;;4992891;28;20038;-67
2022/01/08 05:30:41;;;;;;;42.72;6.10;;;;;;;;;;4999225;28;20018;-67
2022/01/08 05:33:08;;;;;;;48.70;6.70;;;;;;;;;;4997551;28;20049;-67
2022/01/08 05:35:34;;;;;;;50.88;6.63;;;;;;;;;;5005683;28;20022;-68
2022/01/08 05:38:00;;;;;;;36.92;5.22;;;;;;;;;;4996273;28;20054;-68
2022/01/08 05:40:26;;;;;;;43.25;6.03;;;;;;;;;;4996301;28;20061;-67
2022/01/08 05:42:52;;;;;;;36.55;7.30;;;;;;;;;;4993002;28;20117;-67
2022/01/08 05:45:18;;;;;;;29.85;3.72;;;;;;;;;;4993407;28;20478;-67
2022/01/08 05:47:45;;;;;;;26.42;4.55;;;;;;;;;;4993311;28;20122;-67
2022/01/08 05:50:11;;;;;;;18.38;3.03;;;;;;;;;;4992403;28;20029;-67
2022/01/08 05:52:37;;;;;;;20.35;3.53;;;;;;;;;;4995529;28;20483;-67
2022/01/08 05:55:04;;;;;;;32.08;3.40;;;;;;;;;;4997468;28;20022;-67
2022/01/08 05:57:30;;;;;;;21.05;3.55;;;;;;;;;;4995990;28;20026;-67
2022/01/08 05:59:56;;;;;;;23.63;3.90;;;;;;;;;;4990324;28;20038;-67
2022/01/08 06:02:22;;;;;;;21.27;3.80;;;;;;;;;;4991099;28;20399;-67
2022/01/08 06:04:48;;;;;;;22.83;3.72;;;;;;;;;;4996518;28;20116;-68
2022/01/08 06:07:14;;;;;;;23.45;4.38;;;;;;;;;;4994530;28;20048;-67
2022/01/08 06:09:40;;;;;;;29.95;5.90;;;;;;;;;;4995098;28;20033;-68
2022/01/08 06:12:07;;;;;;;34.78;5.25;;;;;;;;;;4994340;28;20041;-67
2022/01/08 06:14:33;;;;;;;21.42;4.20;;;;;;;;;;5006983;28;20033;-67
2022/01/08 06:16:59;;;;;;;23.20;4.72;;;;;;;;;;4978450;28;20133;-67
2022/01/08 06:19:25;;;;;;;19.30;3.50;;;;;;;;;;5005680;28;20022;-68
2022/01/08 06:21:51;;;;;;;19.48;3.70;;;;;;;;;;5003116;28;20045;-67
2022/01/08 06:24:17;;;;;;;20.92;3.42;;;;;;;;;;4982304;28;20033;-68
2022/01/08 06:26:43;;;;;;;12.10;2.90;;;;;;;;;;5001228;28;20395;-68
2022/01/08 06:29:10;;;;;;;24.70;4.35;;;;;;;;;;4997330;28;20035;-67
2022/01/08 06:31:36;;;;;;;20.60;3.10;;;;;;;;;;4996501;28;20031;-68
2022/01/08 06:34:03;;;;;;;22.63;2.95;;;;;;;;;;4996496;28;20085;-68
2022/01/08 06:36:29;;;;;;;22.13;4.18;;;;;;;;;;4994364;28;20038;-67
2022/01/08 06:38:55;;;;;;;10.57;2.20;;;;;;;;;;4995963;28;20042;-68
2022/01/08 06:41:22;;;;;;;16.25;2.85;;;;;;;;;;5002877;28;20061;-67
2022/01/08 06:43:48;;;;;;;22.02;3.03;;;;;;;;;;4996542;28;20410;-67
2022/01/08 06:46:14;;;;;;;17.40;3.25;;;;;;;;;;4997693;28;20426;-67
2022/01/08 06:48:41;;;;;;;24.40;3.70;;;;;;;;;;5000331;28;20018;-67
2022/01/08 06:51:07;;;;;;;30.77;4.80;;;;;;;;;;4998645;28;20129;-67
2022/01/08 06:53:33;;;;;;;35.58;4.97;;;;;;;;;;4997099;28;20053;-67
2022/01/08 06:55:59;;;;;;;30.25;4.90;;;;;;;;;;4995889;28;20037;-68
2022/01/08 06:58:26;;;;;;;21.65;3.20;;;;;;;;;;4987083;28;20835;-67
2022/01/08 07:00:53;;;;;;;32.70;3.95;;;;;;;;;;4996032;28;20037;-67
2022/01/08 07:03:19;;;;;;;19.88;3.80;;;;;;;;;;4995954;28;20410;-69
2022/01/08 07:05:45;;;;;;;24.30;3.80;;;;;;;;;;5001715;28;20482;-67
2022/01/08 07:08:11;;;;;;;21.73;4.20;;;;;;;;;;5003685;28;20038;-68
2022/01/08 07:10:38;;;;;;;24.75;3.10;;;;;;;;;;5001367;28;20382;-68
2022/01/08 07:13:04;;;;;;;19.50;3.08;;;;;;;;;;4996079;28;20031;-68
2022/01/08 07:15:30;;;;;;;21.52;3.50;;;;;;;;;;4995770;28;20027;-67
2022/01/08 07:17:56;;;;;;;34.03;5.18;;;;;;;;;;4982879;28;20529;-68
2022/01/08 07:20:22;;;;;;;20.00;3.95;;;;;;;;;;4995546;28;20030;-67
2022/01/08 07:22:49;;;;;;;19.35;3.85;;;;;;;;;;5002297;28;20034;-67
2022/01/08 07:25:15;;;;;;;24.48;3.13;;;;;;;;;;4996318;28;20038;-68
2022/01/08 07:27:41;;;;;;;29.30;3.92;;;;;;;;;;4995380;28;20486;-68
2022/01/08 07:30:08;;;;;;;19.20;4.50;;;;;;;;;;4995849;28;20038;-68
2022/01/08 07:32:40;;;;;;;23.52;3.92;;;;;;;;;;4997757;28;20049;-68
2022/01/08 07:35:06;;;;;;;21.20;3.85;;;;;;;;;;4995219;28;20394;-68
2022/01/08 07:37:32;;;;;;;17.10;4.00;;;;;;;;;;4996947;28;20364;-67
2022/01/08 07:39:58;;;;;;;25.63;2.78;;;;;;;;;;4995369;28;20083;-68
2022/01/08 07:42:24;;;;;;;15.63;3.05;;;;;;;;;;4996372;28;20022;-68
2022/01/08 07:44:51;;;;;;;21.38;3.67;;;;;;;;;;4996534;28;20442;-68
2022/01/08 07:47:18;;;;;;;23.85;3.80;;;;;;;;;;4994904;28;20553;-67
2022/01/08 07:49:44;;;;;;;24.02;3.58;;;;;;;;;;4994511;28;20026;-67
2022/01/08 07:52:10;;;;;;;27.52;3.95;;;;;;;;;;4994363;28;20463;-68
2022/01/08 07:54:36;;;;;;;27.80;3.45;;;;;;;;;;4992414;28;20026;-67
2022/01/08 07:57:02;;;;;;;22.40;4.07;;;;;;;;;;4991247;28;20038;-67
2022/01/08 07:59:28;;;;;;;24.15;3.65;;;;;;;;;;4992310;28;20100;-68
2022/01/08 08:01:55;;;;;;;25.25;3.97;;;;;;;;;;4994590;28;20113;-67
2022/01/08 08:04:21;;;;;;;24.02;3.60;;;;;;;;;;4994131;28;20471;-68
2022/01/08 08:06:47;;;;;;;25.15;3.97;;;;;;;;;;4991090;28;20027;-68
2022/01/08 08:09:17;;;;;;;27.75;3.47;;;;;;;;;;4997862;28;20310;-67
2022/01/08 08:11:43;;;;;;;15.50;3.28;;;;;;;;;;4995692;28;20030;-67
2022/01/08 08:14:10;;;;;;;19.60;3.78;;;;;;;;;;4987896;28;20026;-67
2022/01/08 08:16:36;;;;;;;21.15;3.53;;;;;;;;;;5000064;28;20054;-68
2022/01/08 08:19:02;;;;;;;19.70;3.40;;;;;;;;;;4999203;28;20033;-67
2022/01/08 08:21:28;;;;;;;19.95;3.92;;;;;;;;;;4996171;28;20030;-68
2022/01/08 08:23:54;;;;;;;22.90;4.13;;;;;;;;;;4998059;28;20041;-67
2022/01/08 08:26:21;;;;;;;37.45;5.63;;;;;;;;;;4997052;28;20033;-67
2022/01/08 08:28:47;;;;;;;27.23;4.20;;;;;;;;;;4992899;28;20454;-67
2022/01/08 08:31:13;;;;;;;20.90;3.67;;;;;;;;;;4993450;28;20076;-68
2022/01/08 08:33:39;;;;;;;26.23;5.10;;;;;;;;;;4993139;28;20050;-67
2022/01/08 08:36:06;;;;;;;23.83;4.13;;;;;;;;;;4995933;28;20567;-68
2022/01/08 08:38:32;;;;;;;32.72;5.00;;;;;;;;;;4997606;28;20037;-68
2022/01/08 08:40:58;;;;;;;21.10;3.67;;;;;;;;;;5002095;28;20397;-68
2022/01/08 08:43:24;;;;;;;39.05;5.55;;;;;;;;;;4992460;28;20034;-69
2022/01/08 08:45:50;;;;;;;23.85;4.05;;;;;;;;;;4996157;28;20088;-68
2022/01/08 08:48:17;;;;;;;28.58;4.72;;;;;;;;;;4993836;28;20657;-68
2022/01/08 08:50:44;;;;;;;34.25;4.55;;;;;;;;;;4999149;28;20025;-68
2022/01/08 08:53:10;;;;;;;29.33;5.30;;;;;;;;;;4999350;28;20024;-69
2022/01/08 08:55:36;;;;;;;23.85;4.72;;;;;;;;;;5006052;28;20036;-68
2022/01/08 08:58:02;;;;;;;34.60;4.43;;;;;;;;;;4996557;28;20031;-68
2022/01/08 09:00:28;;;;;;;31.70;5.78;;;;;;;;;;4994809;28;20421;-68
2022/01/08 09:02:55;;;;;;;27.45;4.40;;;;;;;;;;5001159;28;20085;-70
2022/01/08 09:05:21;;;;;;;21.40;3.97;;;;;;;;;;5003040;28;20057;-69
2022/01/08 09:07:47;;;;;;;35.08;4.43;;;;;;;;;;5001488;28;20504;-69
2022/01/08 09:10:13;;;;;;;25.15;4.43;;;;;;;;;;5009618;28;20030;-69
2022/01/08 09:12:41;;;;;;;30.33;4.22;;;;;;;;;;4995731;28;20014;-69
2022/01/08 09:15:08;;;;;;;16.67;3.58;;;;;;;;;;5001395;28;20030;-69
2022/01/08 09:17:35;;;;;;;29.65;4.40;;;;;;;;;;5001876;28;20541;-69
2022/01/08 09:20:03;;;;;;;20.67;4.05;;;;;;;;;;4993227;28;20050;-69
2022/01/08 09:22:29;;;;;;;17.98;3.42;;;;;;;;;;4994890;28;20538;-69
2022/01/08 09:24:56;;;;;;;20.08;3.78;;;;;;;;;;4994556;28;20505;-69
2022/01/08 09:27:23;;;;;;;15.32;3.40;;;;;;;;;;5001423;28;20064;-69
2022/01/08 09:29:49;;;;;;;28.23;4.43;;;;;;;;;;4972833;28;20026;-69
2022/01/08 09:32:17;;;;;;;25.42;3.60;;;;;;;;;;4997042;28;20113;-69
2022/01/08 09:34:43;;;;;;;21.92;3.13;;;;;;;;;;4994012;28;20080;-70
2022/01/08 09:37:10;;;;;;;17.55;3.05;;;;;;;;;;4996148;28;20025;-69
2022/01/08 09:39:36;;;;;;;19.05;4.28;;;;;;;;;;4998768;28;20497;-69
2022/01/08 09:42:07;;;;;;;17.23;2.75;;;;;;;;;;4995654;28;20034;-67
2022/01/08 09:44:34;;;;;;;21.80;3.38;;;;;;;;;;4993306;28;20026;-69
2022/01/08 09:47:01;;;;;;;14.80;3.05;;;;;;;;;;4998595;28;20030;-69
2022/01/08 09:49:27;;;;;;;19.75;2.97;;;;;;;;;;4998841;28;20113;-70
2022/01/08 09:51:53;;;;;;;18.13;4.00;;;;;;;;;;4995759;28;20042;-70
2022/01/08 09:54:19;;;;;;;21.02;3.20;;;;;;;;;;4994958;28;20030;-70
2022/01/08 09:56:45;;;;;;;21.23;3.35;;;;;;;;;;4993908;28;20145;-70
2022/01/08 09:59:11;;;;;;;21.00;3.00;;;;;;;;;;4999835;28;20014;-70
2022/01/08 10:01:37;;;;;;;22.02;3.78;;;;;;;;;;4999554;28;20545;-70
2022/01/08 10:04:04;;;;;;;21.35;4.53;;;;;;;;;;4999106;28;20023;-70
2022/01/08 10:06:32;;;;;;;18.77;3.60;;;;;;;;;;4998091;28;20026;-70
2022/01/08 10:08:58;;;;;;;27.80;5.55;;;;;;;;;;4998425;28;20034;-69
2022/01/08 10:11:25;;;;;;;14.95;2.97;;;;;;;;;;4997107;28;20022;-69
2022/01/08 10:14:02;;;;;;;20.70;3.28;;;;;;;;;;4997619;28;20474;-70
2022/01/08 10:19:21;;;;;;;12.40;2.83;;;;;;;;;;4989271;28;20027;-69
2022/01/08 10:21:48;;;;;;;18.52;3.28;;;;;;;;;;4994151;28;20045;-69
2022/01/08 10:24:19;;;;;;;22.38;3.33;;;;;;;;;;5004088;28;20026;-69
2022/01/08 10:26:45;;;;;;;18.25;2.70;;;;;;;;;;4999954;28;20077;-69
2022/01/08 10:29:11;;;;;;;19.83;3.50;;;;;;;;;;4999046;28;20030;-69
2022/01/08 10:31:39;;;;;;;19.45;2.80;;;;;;;;;;5000171;28;20049;-69
2022/01/08 10:34:08;;;;;;;17.55;2.88;;;;;;;;;;4999552;28;20050;-69
2022/01/08 10:36:38;;;;;;;15.23;2.22;;;;;;;;;;5001104;28;20033;-69
2022/01/08 10:39:06;;;;;;;8.25;2.10;;;;;;;;;;4995418;28;20070;-69
2022/01/08 10:41:32;;;;;;;15.15;2.30;;;;;;;;;;4992452;28;20406;-69
2022/01/08 10:44:09;;;;;;;11.63;2.42;;;;;;;;;;4992814;28;20165;-69
2022/01/08 10:46:36;;;;;;;13.48;2.28;;;;;;;;;;4990510;28;20065;-69
2022/01/08 10:49:02;;;;;;;16.15;2.97;;;;;;;;;;4984486;28;20027;-69
2022/01/08 10:51:34;;;;;;;10.20;2.20;;;;;;;;;;4988318;28;20121;-70
2022/01/08 10:54:00;;;;;;;8.25;2.17;;;;;;;;;;4983008;28;20113;-70
2022/01/08 10:56:27;;;;;;;8.50;2.17;;;;;;;;;;4985324;28;20042;-69
2022/01/08 10:58:58;;;;;;;12.20;2.38;;;;;;;;;;4990531;28;20031;-70
2022/01/08 11:01:40;;;;;;;13.25;2.65;;;;;;;;;;4989960;28;20042;-70
2022/01/08 11:04:08;;;;;;;14.52;2.50;;;;;;;;;;4995910;28;20042;-70
2022/01/08 11:06:48;;;;;;;8.27;2.10;;;;;;;;;;4978157;28;20042;-69
2022/01/08 11:09:14;;;;;;;14.32;2.25;;;;;;;;;;4994637;28;20040;-70
2022/01/08 11:11:40;;;;;;;8.25;1.92;;;;;;;;;;4996902;28;20398;-70
2022/01/08 11:14:08;;;;;;;9.88;1.95;;;;;;;;;;4994744;28;20208;-69
2022/01/08 11:16:37;;;;;;;13.52;2.30;;;;;;;;;;5001935;28;20130;-70
2022/01/08 11:19:04;;;;;;;9.70;2.17;;;;;;;;;;4994480;28;20446;-70
2022/01/08 11:21:31;;;;;;;16.10;2.47;;;;;;;;;;4993976;28;20030;-70
2022/01/08 11:23:58;;;;;;;10.85;2.53;;;;;;;;;;4990188;28;20022;-70
2022/01/08 11:26:25;;;;;;;8.73;2.28;;;;;;;;;;4964432;28;20050;-70
2022/01/08 11:28:53;;;;;;;13.02;2.08;;;;;;;;;;4998824;28;20121;-70
2022/01/08 11:31:21;;;;;;;10.35;1.73;;;;;;;;;;4993337;28;20030;-70
2022/01/08 11:33:50;;;;;;;7.82;1.73;;;;;;;;;;4976035;28;20026;-70
2022/01/08 11:36:17;;;;;;;11.93;2.67;;;;;;;;;;4993187;28;20049;-70
2022/01/08 11:38:44;;;;;;;13.25;2.72;;;;;;;;;;4994334;28;20418;-70
2022/01/08 11:41:10;;;;;;;8.82;2.72;;;;;;;;;;4993112;28;20037;-70
2022/01/08 11:43:37;;;;;;;16.58;2.33;;;;;;;;;;4993646;28;20502;-70
2022/01/08 11:46:05;;;;;;;11.73;3.20;;;;;;;;;;4996240;28;20109;-70
2022/01/08 11:48:33;;;;;;;17.27;4.38;;;;;;;;;;4994641;28;20030;-70
2022/01/08 11:51:00;;;;;;;12.15;3.20;;;;;;;;;;4996304;28;20654;-70
2022/01/08 11:53:28;;;;;;;15.95;3.25;;;;;;;;;;4988922;28;20027;-70
2022/01/08 11:56:01;;;;;;;12.52;2.67;;;;;;;;;;4991239;28;20102;-70
2022/01/08 11:58:30;;;;;;;17.52;3.45;;;;;;;;;;4993169;28;20153;-70
2022/01/08 12:00:56;;;;;;;10.70;2.50;;;;;;;;;;4988572;28;20553;-70
2022/01/08 12:03:23;;;;;;;16.85;2.53;;;;;;;;;;4993424;28;20026;-70
2022/01/08 12:05:50;;;;;;;20.45;3.10;;;;;;;;;;4993988;28;20049;-70
2022/01/08 12:08:18;;;;;;;17.75;2.97;;;;;;;;;;4991404;28;20021;-70
2022/01/08 12:10:56;;;;;;;13.48;2.75;;;;;;;;;;4994883;28;20109;-70
2022/01/08 12:13:40;;;;;;;19.50;3.40;;;;;;;;;;4992871;28;20022;-70
2022/01/08 12:16:06;;;;;;;22.38;3.63;;;;;;;;;;4987327;28;20121;-71
2022/01/08 12:18:53;;;;;;;17.35;2.83;;;;;;;;;;4987258;28;20030;-69
2022/01/08 12:21:38;;;;;;;12.27;3.35;;;;;;;;;;4989155;28;20037;-69
2022/01/08 12:24:23;;;;;;;18.48;2.92;;;;;;;;;;4991642;28;20034;-69
2022/01/08 12:26:49;;;;;;;15.90;3.13;;;;;;;;;;4992950;28;20033;-66
2022/01/08 12:29:35;;;;;;;14.63;2.90;;;;;;;;;;4991385;28;20085;-70
2022/01/08 12:32:37;;;;;;;10.85;2.10;;;;;;;;;;4986821;28;20035;-69
2022/01/08 12:35:06;;;;;;;14.68;2.58;;;;;;;;;;4985874;28;20092;-69
2022/01/08 12:37:37;;;;;;;12.35;3.53;;;;;;;;;;4993201;28;20050;-69
2022/01/08 12:40:04;;;;;;;9.35;1.80;;;;;;;;;;4995303;28;20487;-68
2022/01/08 12:42:30;;;;;;;8.30;1.60;;;;;;;;;;4995161;28;20475;-68
2022/01/08 12:45:01;;;;;;;7.43;1.42;;;;;;;;;;4992950;28;20026;-68
2022/01/08 12:47:45;;;;;;;8.23;1.65;;;;;;;;;;4994599;28;20045;-68
2022/01/08 12:50:23;;;;;;;8.52;1.90;;;;;;;;;;4995488;28;20041;-68
2022/01/08 12:53:07;;;;;;;13.55;1.77;;;;;;;;;;4994197;28;20084;-68
2022/01/08 12:55:34;;;;;;;5.65;2.70;;;;;;;;;;4974702;28;20434;-68
2022/01/08 12:58:01;;;;;;;3.35;1.10;;;;;;;;;;4992519;28;20118;-69
2022/01/08 13:00:28;;;;;;;3.65;1.00;;;;;;;;;;4992135;28;20033;-69
2022/01/08 13:02:54;;;;;;;2.47;0.82;;;;;;;;;;4992469;28;20034;-69
2022/01/08 13:05:20;;;;;;;3.35;0.90;;;;;;;;;;4993803;28;20081;-68
2022/01/08 13:07:49;;;;;;;7.20;1.20;;;;;;;;;;4993799;28;20030;-69
2022/01/08 13:10:16;;;;;;;4.60;1.17;;;;;;;;;;4995811;28;20482;-69
2022/01/08 13:12:42;;;;;;;11.38;1.77;;;;;;;;;;4993546;28;20081;-69
2022/01/08 13:15:09;;;;;;;4.40;1.40;;;;;;;;;;4992355;28;20378;-68
2022/01/08 13:17:35;;;;;;;6.10;1.52;;;;;;;;;;4995430;28;20434;-69
2022/01/08 13:20:05;;;;;;;7.50;1.75;;;;;;;;;;4994084;28;20033;-69
2022/01/08 13:22:32;;;;;;;10.32;2.10;;;;;;;;;;4996025;28;20022;-69
2022/01/08 13:24:58;;;;;;;9.10;2.17;;;;;;;;;;4994279;28;20023;-68
2022/01/08 13:27:24;;;;;;;14.23;2.38;;;;;;;;;;4992039;28;20026;-68
2022/01/08 13:29:51;;;;;;;9.23;2.22;;;;;;;;;;4994165;28;20109;-68
2022/01/08 13:32:19;;;;;;;14.52;1.90;;;;;;;;;;4991022;28;20038;-68
2022/01/08 13:34:46;;;;;;;11.50;1.95;;;;;;;;;;4993488;28;20066;-68
2022/01/08 13:37:13;;;;;;;5.32;2.28;;;;;;;;;;4993847;28;20038;-68
2022/01/08 13:39:41;;;;;;;14.55;2.95;;;;;;;;;;4994103;28;20042;-68
2022/01/08 13:42:10;;;;;;;13.13;2.30;;;;;;;;;;4993715;28;20092;-68
2022/01/08 13:44:37;;;;;;;6.93;2.22;;;;;;;;;;4993431;28;20045;-68
2022/01/08 13:47:03;;;;;;;12.40;2.00;;;;;;;;;;4996376;28;20037;-68
2022/01/08 13:49:30;;;;;;;9.32;1.70;;;;;;;;;;4991333;28;20041;-68
2022/01/08 13:51:56;;;;;;;8.40;1.83;;;;;;;;;;4975356;28;20036;-68
2022/01/08 13:54:33;;;;;;;4.65;1.60;;;;;;;;;;4992306;28;20038;-68
2022/01/08 13:57:10;;;;;;;12.30;1.80;;;;;;;;;;4981854;28;20034;-70
2022/01/08 13:59:36;;;;;;;18.65;3.65;;;;;;;;;;4994077;28;20049;-69
2022/01/08 14:02:02;;;;;;;42.28;5.80;;;;;;;;;;4993600;28;20026;-68
2022/01/08 14:04:29;;;;;;;46.25;8.10;;;;;;;;;;4993059;28;20029;-68
2022/01/08 14:06:57;;;;;;;53.20;9.07;;;;;;;;;;4990295;28;20777;-68
2022/01/08 14:09:23;;;;;;;24.83;5.03;;;;;;;;;;4990470;28;20026;-68
2022/01/08 14:11:49;;;;;;;38.08;6.07;;;;;;;;;;4990968;28;20030;-68
2022/01/08 14:14:18;;;;;;;43.70;5.60;;;;;;;;;;4991733;28;20557;-68
2022/01/08 14:16:45;;;;;;;35.60;7.63;;;;;;;;;;4991726;28;20038;-68
2022/01/08 14:19:12;;;;;;;32.15;4.78;;;;;;;;;;4989835;28;20426;-67
2022/01/08 14:21:55;;;;;;;33.40;7.15;;;;;;;;;;4991981;28;20026;-68
2022/01/08 14:24:22;;;;;;;52.73;11.30;;;;;;;;;;4991472;28;20100;-68
2022/01/08 14:27:06;;;;;;;41.25;6.93;;;;;;;;;;4993098;28;20077;-68
2022/01/08 14:29:34;;;;;;;34.55;5.30;;;;;;;;;;4988506;28;20034;-68
2022/01/08 14:32:01;;;;;;;32.67;6.13;;;;;;;;;;4993667;28;20485;-68
2022/01/08 14:34:27;;;;;;;19.45;5.30;;;;;;;;;;4993151;28;20491;-68
2022/01/08 14:36:53;;;;;;;22.00;5.22;;;;;;;;;;4990831;28;20043;-68
2022/01/08 14:39:35;;;;;;;18.60;2.97;;;;;;;;;;4991114;28;20418;-68
2022/01/08 14:42:04;;;;;;;13.50;2.25;;;;;;;;;;4996903;28;20414;-68
2022/01/08 14:44:31;;;;;;;11.23;2.42;;;;;;;;;;4998583;28;20030;-68
2022/01/08 14:46:57;;;;;;;14.45;2.85;;;;;;;;;;4995625;28;20121;-68
2022/01/08 14:49:24;;;;;;;18.83;3.58;;;;;;;;;;4997344;28;20106;-68
2022/01/08 14:51:52;;;;;;;30.80;4.18;;;;;;;;;;4994941;28;20543;-68
2022/01/08 14:54:18;;;;;;;43.28;6.50;;;;;;;;;;4994798;28;20023;-68